Time;durP1;ratioP1;P1;durP2;ratioP2;P2;SDS_P1;SDS_P2;PMS_P1;PMS_P2;Temp;Humidity;BMP_temperature;BMP_pressure;BME280_temperature;BME280_humidity;BME280_pressure;Samples;Min_cycle;Max_cycle;Signal;HPM_P1;HPM_P2
2023/12/29 00:34:38;;;;;;;5.90;3.80;;;;;;;6.54;70.76;98746.64;103453;1284;600807;-26
2023/12/29 00:37:06;;;;;;;10.60;3.60;;;;;;;7.08;69.64;98753.00;104820;1271;61168;-25
2023/12/29 00:47:10;;;;;;;9.70;4.60;;;;;;;7.49;67.96;98743.55;102814;1290;600095;-26
2023/12/29 00:49:40;;;;;;;8.50;5.00;;;;;;;7.30;67.93;98740.23;104881;1269;61075;-27
2023/12/29 00:52:08;;;;;;;7.20;4.50;;;;;;;7.15;68.22;98740.09;104864;1270;61513;-28
2023/12/29 00:54:35;;;;;;;10.20;4.70;;;;;;;6.98;68.92;98733.75;105067;1270;72187;-28
2023/12/29 00:57:04;;;;;;;8.90;4.80;;;;;;;6.83;69.42;98730.79;104879;1269;73604;-28
2023/12/29 00:59:31;;;;;;;6.90;3.60;;;;;;;6.69;69.58;98722.27;105015;1264;71544;-28
2023/12/29 01:01:59;;;;;;;3.90;3.10;;;;;;;7.15;68.85;98721.83;104874;1263;197830;-25
2023/12/29 01:04:28;;;;;;;7.20;4.20;;;;;;;7.50;67.58;98720.16;104988;1264;61774;-25
2023/12/29 01:06:56;;;;;;;7.00;4.60;;;;;;;7.46;67.14;98716.14;105117;1264;72649;-25
2023/12/29 01:09:23;;;;;;;6.60;4.20;;;;;;;7.24;67.30;98715.95;105195;1263;73100;-25
2023/12/29 01:11:51;;;;;;;8.90;4.50;;;;;;;6.99;67.80;98712.73;105168;1267;72608;-25
2023/12/29 01:14:18;;;;;;;7.10;4.60;;;;;;;6.71;68.64;98706.61;105173;1266;61057;-25
2023/12/29 01:16:46;;;;;;;6.80;3.80;;;;;;;6.48;69.11;98704.93;105156;1266;61106;-25
2023/12/29 01:26:52;;;;;;;5.20;3.00;;;;;;;7.18;68.45;98707.81;102719;1294;600317;-25
2023/12/29 01:29:19;;;;;;;6.50;3.70;;;;;;;7.14;68.12;98707.88;104888;1267;61159;-25
2023/12/29 01:39:23;;;;;;;7.20;4.70;;;;;;;6.16;69.92;98716.64;102674;1292;599499;-25
2023/12/29 01:41:50;;;;;;;6.50;4.60;;;;;;;5.91;70.28;98716.02;104806;1271;61187;-25
2023/12/29 01:44:20;;;;;;;7.30;4.70;;;;;;;5.69;70.90;98713.17;104765;1266;61030;-25
2023/12/29 01:46:53;;;;;;;5.80;3.50;;;;;;;5.45;72.05;98709.61;104656;1274;72224;-25
2023/12/29 01:57:02;;;;;;;4.80;3.60;;;;;;;6.23;70.12;98697.21;102806;1290;599277;-28
2023/12/29 01:59:31;;;;;;;7.90;4.20;;;;;;;5.93;70.51;98698.85;104846;1266;61158;-25
2023/12/29 02:01:58;;;;;;;8.60;4.90;;;;;;;5.66;71.05;98699.60;104866;1271;61727;-26
2023/12/29 02:04:27;;;;;;;6.50;4.40;;;;;;;5.43;71.54;98698.69;104980;1266;72139;-26
2023/12/29 02:06:55;;;;;;;8.10;4.10;;;;;;;5.22;72.18;98694.73;105304;1265;72103;-26
2023/12/29 02:09:25;;;;;;;4.70;2.80;;;;;;;5.04;73.17;98695.52;105546;1258;71544;-27
2023/12/29 02:11:52;;;;;;;4.60;3.00;;;;;;;5.59;72.92;98689.05;105477;1254;159794;-26
2023/12/29 02:14:20;;;;;;;7.50;3.70;;;;;;;6.11;71.15;98686.96;105462;1257;61108;-26
2023/12/29 02:17:27;;;;;;;5.00;3.30;;;;;;;6.12;70.57;98682.96;105620;1254;71113;-26
2023/12/29 02:19:55;;;;;;;6.50;4.00;;;;;;;5.88;70.76;98677.64;105160;1261;74312;-26
2023/12/29 02:22:23;;;;;;;5.60;4.10;;;;;;;5.63;71.09;98674.69;105578;1254;71444;-26
2023/12/29 02:24:51;;;;;;;5.90;4.10;;;;;;;5.39;71.62;98670.74;105568;1257;61239;-27
2023/12/29 02:27:38;;;;;;;7.80;4.20;;;;;;;5.18;72.09;98669.67;105267;1260;61263;-27
2023/12/29 02:30:38;;;;;;;3.70;2.80;;;;;;;4.91;73.16;98669.86;105552;1260;71826;-27
2023/12/29 02:33:09;;;;;;;5.20;3.50;;;;;;;5.46;73.54;98660.63;105692;1258;73044;-26
2023/12/29 02:35:42;;;;;;;4.60;3.10;;;;;;;5.78;72.19;98655.75;105505;1257;72590;-26
2023/12/29 02:38:10;;;;;;;6.90;3.80;;;;;;;5.72;72.21;98655.83;105346;1259;61539;-26
2023/12/29 02:40:38;;;;;;;7.20;4.00;;;;;;;5.48;72.81;98649.29;105535;1262;61132;-27
2023/12/29 02:43:07;;;;;;;6.50;3.70;;;;;;;5.29;73.20;98645.91;105501;1263;73088;-27
2023/12/29 02:45:35;;;;;;;7.70;4.20;;;;;;;5.12;72.41;98654.23;105330;1257;74320;-26
2023/12/29 02:48:03;;;;;;;7.40;4.50;;;;;;;4.88;72.87;98661.14;105567;1257;72721;-27
2023/12/29 02:50:31;;;;;;;4.40;3.00;;;;;;;4.61;73.48;98666.62;105542;1258;61194;-27
2023/12/29 02:52:59;;;;;;;6.80;3.60;;;;;;;4.96;73.71;98664.40;105612;1261;61109;-27
2023/12/29 02:55:26;;;;;;;5.60;3.50;;;;;;;5.37;72.54;98665.83;105573;1256;71818;-27
2023/12/29 02:57:54;;;;;;;8.00;3.90;;;;;;;5.35;72.26;98665.85;105541;1257;74290;-27
2023/12/29 03:00:38;;;;;;;7.00;4.00;;;;;;;5.13;72.56;98669.31;102735;1296;600025;-27
2023/12/29 03:10:42;;;;;;;5.40;3.10;;;;;;;4.17;77.17;98664.64;102736;1290;599425;-26
2023/12/29 03:20:48;;;;;;;6.90;4.00;;;;;;;4.99;73.91;98659.20;102761;1293;600146;-25
2023/12/29 03:30:52;;;;;;;4.70;2.50;;;;;;;4.46;76.29;98668.55;102748;1293;600054;-28
2023/12/29 03:40:57;;;;;;;7.20;3.50;;;;;;;4.66;74.75;98667.66;103017;1292;600189;-25
2023/12/29 03:43:25;;;;;;;7.50;4.00;;;;;;;4.43;75.30;98668.39;104829;1271;61263;-26
2023/12/29 03:45:54;;;;;;;4.70;3.40;;;;;;;4.22;76.02;98669.64;104896;1267;61676;-26
2023/12/29 03:56:07;;;;;;;6.20;3.50;;;;;;;5.19;73.63;98662.19;102656;1292;600270;-25
2023/12/29 03:58:35;;;;;;;5.10;3.40;;;;;;;4.96;74.07;98660.42;104816;1266;61037;-26
2023/12/29 04:01:03;;;;;;;5.60;3.80;;;;;;;4.77;74.24;98659.40;104860;1266;61227;-26
2023/12/29 04:03:31;;;;;;;6.50;4.00;;;;;;;4.53;74.91;98650.22;104880;1266;72261;-27
2023/12/29 04:05:59;;;;;;;5.20;3.90;;;;;;;4.35;75.23;98641.89;104860;1270;74277;-26
2023/12/29 04:08:26;;;;;;;5.30;3.10;;;;;;;4.18;75.91;98639.67;104805;1266;71483;-27
2023/12/29 04:10:54;;;;;;;4.80;3.10;;;;;;;4.68;75.51;98646.35;104846;1269;61235;-26
2023/12/29 04:13:21;;;;;;;4.90;3.20;;;;;;;5.27;73.79;98650.18;104936;1269;61180;-26
2023/12/29 04:15:49;;;;;;;4.90;2.80;;;;;;;5.31;73.01;98650.98;104810;1263;70852;-26
2023/12/29 04:18:18;;;;;;;7.20;3.70;;;;;;;5.12;73.20;98653.89;104981;1269;74831;-26
2023/12/29 04:20:46;;;;;;;6.80;3.50;;;;;;;4.86;73.57;98652.42;104874;1266;72662;-26
2023/12/29 04:23:13;;;;;;;6.70;3.80;;;;;;;4.61;73.93;98654.39;104928;1269;61176;-26
2023/12/29 04:25:41;;;;;;;7.70;4.50;;;;;;;4.36;74.55;98653.20;104887;1269;61538;-26
2023/12/29 04:28:09;;;;;;;4.30;2.90;;;;;;;4.14;75.17;98657.25;105049;1266;71776;-27
2023/12/29 04:30:37;;;;;;;6.30;3.20;;;;;;;4.55;75.43;98660.56;104816;1269;74349;-26
2023/12/29 04:33:04;;;;;;;4.80;3.30;;;;;;;5.09;73.83;98660.60;104821;1263;71409;-26
2023/12/29 04:35:32;;;;;;;7.70;3.80;;;;;;;5.15;73.32;98660.59;104816;1269;61127;-26
2023/12/29 04:38:00;;;;;;;6.20;3.60;;;;;;;4.95;73.42;98660.67;104981;1269;61147;-26
2023/12/29 04:40:28;;;;;;;7.10;3.30;;;;;;;4.68;73.84;98658.43;104945;1263;71868;-27
2023/12/29 04:42:55;;;;;;;8.10;4.30;;;;;;;4.40;74.56;98652.95;105159;1264;73110;-26
2023/12/29 04:45:23;;;;;;;6.40;4.10;;;;;;;4.19;74.92;98650.42;105131;1263;72691;-26
2023/12/29 04:47:51;;;;;;;4.90;2.50;;;;;;;3.98;75.74;98654.11;105123;1269;61179;-26
2023/12/29 04:50:18;;;;;;;7.30;3.70;;;;;;;4.43;75.99;98661.52;105147;1269;61170;-26
2023/12/29 04:52:46;;;;;;;5.30;3.40;;;;;;;4.98;74.38;98663.73;105173;1267;73065;-26
2023/12/29 04:55:14;;;;;;;5.70;3.20;;;;;;;5.00;73.67;98665.84;105094;1269;73233;-26
2023/12/29 04:57:42;;;;;;;5.80;3.20;;;;;;;4.85;74.04;98668.17;104812;1264;71276;-26
2023/12/29 05:00:11;;;;;;;5.60;4.50;;;;;;;4.64;74.15;98675.84;104982;1269;61201;-26
2023/12/29 05:10:36;;;;;;;6.10;3.50;;;;;;;3.87;79.47;98674.32;102595;1290;615500;-27
2023/12/29 05:13:03;;;;;;;5.30;3.50;;;;;;;4.64;77.39;98673.42;105139;1264;60996;-26
2023/12/29 05:15:30;;;;;;;5.90;3.70;;;;;;;4.87;76.00;98668.72;105182;1264;61286;-26
2023/12/29 05:17:57;;;;;;;5.60;3.10;;;;;;;4.82;76.03;98663.89;105129;1269;72261;-27
2023/12/29 05:20:24;;;;;;;6.50;3.40;;;;;;;4.71;76.28;98666.14;105162;1264;74187;-27
2023/12/29 05:22:51;;;;;;;4.40;3.60;;;;;;;4.70;75.63;98675.27;105061;1269;169830;-27
2023/12/29 05:25:19;;;;;;;6.80;3.90;;;;;;;4.58;75.42;98681.56;105043;1264;61099;-27
2023/12/29 05:27:46;;;;;;;5.40;2.70;;;;;;;4.36;76.06;98682.42;105192;1262;61081;-27
2023/12/29 05:30:14;;;;;;;4.20;3.00;;;;;;;4.81;75.91;98678.56;105179;1264;72228;-27
2023/12/29 05:32:41;;;;;;;4.90;3.50;;;;;;;5.39;74.23;98670.76;105083;1264;74350;-27
2023/12/29 05:35:08;;;;;;;6.00;3.40;;;;;;;5.46;73.53;98669.58;105045;1263;72619;-27
2023/12/29 05:37:35;;;;;;;5.50;3.50;;;;;;;5.29;73.43;98671.73;105121;1262;61067;-27
2023/12/29 05:40:03;;;;;;;6.40;3.40;;;;;;;5.06;73.87;98671.81;104983;1264;61179;-27
2023/12/29 05:42:30;;;;;;;6.00;3.60;;;;;;;4.86;74.35;98662.25;104914;1264;73137;-27
2023/12/29 05:44:57;;;;;;;6.30;4.40;;;;;;;4.67;74.96;98664.96;105219;1264;74355;-27
2023/12/29 05:47:24;;;;;;;4.80;2.80;;;;;;;4.53;75.45;98670.17;104883;1264;72706;-27
2023/12/29 05:49:51;;;;;;;5.60;2.90;;;;;;;4.99;75.34;98674.69;104904;1264;61060;-27
2023/12/29 05:52:18;;;;;;;5.30;3.60;;;;;;;5.57;73.71;98675.75;104888;1265;61201;-27
2023/12/29 05:54:45;;;;;;;5.20;3.10;;;;;;;5.67;72.95;98679.94;105010;1264;73018;-28
2023/12/29 05:57:14;;;;;;;5.60;3.50;;;;;;;5.51;73.06;98679.28;105055;1264;74883;-27
2023/12/29 05:59:40;;;;;;;7.40;4.20;;;;;;;5.31;73.74;98676.56;105215;1264;71689;-27
2023/12/29 06:02:07;;;;;;;9.90;4.70;;;;;;;5.16;74.23;98680.63;105196;1267;61064;-28
2023/12/29 06:04:34;;;;;;;7.50;4.80;;;;;;;4.99;75.04;98683.11;105178;1269;61132;-27
2023/12/29 06:07:01;;;;;;;5.40;3.20;;;;;;;4.82;76.22;98686.80;105217;1264;72938;-29
2023/12/29 06:09:28;;;;;;;6.30;3.30;;;;;;;5.31;75.32;98686.21;105248;1264;74120;-27
2023/12/29 06:11:55;;;;;;;7.30;3.40;;;;;;;5.89;73.26;98688.63;105198;1264;72389;-27
2023/12/29 06:14:22;;;;;;;6.70;3.70;;;;;;;6.02;72.71;98685.52;105677;1253;61152;-27
2023/12/29 06:16:49;;;;;;;7.20;4.30;;;;;;;5.90;72.49;98690.42;105833;1257;61192;-27
2023/12/29 06:19:16;;;;;;;7.00;3.60;;;;;;;5.68;72.80;98692.55;105847;1254;73065;-27
2023/12/29 06:21:43;;;;;;;9.50;4.40;;;;;;;5.47;73.27;98690.51;105868;1254;74276;-27
2023/12/29 06:24:11;;;;;;;6.80;4.30;;;;;;;5.28;73.94;98691.79;105896;1254;72711;-27
2023/12/29 06:26:43;;;;;;;5.00;3.10;;;;;;;5.16;74.45;98689.94;105669;1255;61099;-27
2023/12/29 06:29:10;;;;;;;7.00;3.40;;;;;;;5.73;73.93;98697.73;105789;1254;61016;-27
2023/12/29 06:31:41;;;;;;;8.00;4.00;;;;;;;6.28;72.22;98699.61;105935;1254;73016;-27
2023/12/29 06:34:08;;;;;;;6.20;4.20;;;;;;;6.31;71.69;98695.60;105710;1259;72974;-28
2023/12/29 06:36:35;;;;;;;7.70;3.90;;;;;;;6.10;71.66;98693.91;105815;1257;72620;-27
2023/12/29 06:39:02;;;;;;;6.30;3.30;;;;;;;5.79;72.53;98690.64;105565;1254;61083;-27
2023/12/29 06:41:29;;;;;;;3.70;2.90;;;;;;;5.59;73.42;98690.77;105865;1254;61063;-27
2023/12/29 06:43:56;;;;;;;6.30;4.30;;;;;;;5.40;73.93;98693.70;105873;1254;72983;-27
2023/12/29 06:46:23;;;;;;;3.90;2.80;;;;;;;5.27;74.79;98693.86;105665;1256;73166;-27
2023/12/29 06:48:50;;;;;;;3.70;3.00;;;;;;;5.64;73.63;98694.55;105849;1254;73232;-27
2023/12/29 06:51:18;;;;;;;5.80;4.10;;;;;;;5.74;72.85;98686.33;105835;1253;61036;-27
2023/12/29 06:53:46;;;;;;;5.90;4.10;;;;;;;5.70;72.97;98683.19;105689;1258;61278;-27
2023/12/29 06:56:17;;;;;;;6.50;4.00;;;;;;;5.39;74.12;98677.58;105772;1254;73062;-27
2023/12/29 06:58:44;;;;;;;6.90;3.40;;;;;;;5.28;74.51;98679.85;105696;1254;74508;-27
2023/12/29 07:01:11;;;;;;;8.00;4.30;;;;;;;5.02;75.68;98692.01;105797;1254;73094;-30
2023/12/29 07:03:38;;;;;;;7.70;2.60;;;;;;;5.02;76.21;98696.83;105782;1254;61024;-27
2023/12/29 07:06:05;;;;;;;4.90;3.10;;;;;;;5.63;74.33;98698.05;105635;1256;61138;-27
2023/12/29 07:08:34;;;;;;;5.10;3.80;;;;;;;5.74;73.45;98697.00;105596;1254;72869;-27
2023/12/29 07:11:01;;;;;;;7.00;4.10;;;;;;;5.50;74.00;98693.39;105821;1254;75345;-27
2023/12/29 07:13:28;;;;;;;6.80;3.80;;;;;;;5.37;74.79;98690.63;105818;1254;72933;-27
2023/12/29 07:15:55;;;;;;;4.10;3.00;;;;;;;5.08;76.16;98689.23;105683;1254;61072;-28
2023/12/29 07:18:22;;;;;;;7.00;3.80;;;;;;;4.92;76.92;98693.02;105579;1254;61062;-27
2023/12/29 07:20:49;;;;;;;5.30;3.20;;;;;;;5.21;76.64;98698.08;105852;1253;73537;-27
2023/12/29 07:23:15;;;;;;;5.20;3.90;;;;;;;5.60;74.87;98689.99;105841;1254;74504;-27
2023/12/29 07:25:42;;;;;;;5.80;3.60;;;;;;;5.69;74.44;98690.23;105885;1253;72635;-27
2023/12/29 07:28:09;;;;;;;4.50;3.20;;;;;;;5.77;73.90;98689.77;105820;1254;61058;-27
2023/12/29 07:30:36;;;;;;;7.10;4.40;;;;;;;5.58;74.58;98690.65;105861;1256;61058;-27
2023/12/29 07:33:03;;;;;;;6.80;4.10;;;;;;;5.43;75.37;98692.30;105844;1254;71774;-27
2023/12/29 07:35:30;;;;;;;4.90;3.30;;;;;;;5.34;75.88;98701.50;105699;1253;74294;-27
2023/12/29 07:37:59;;;;;;;4.90;3.20;;;;;;;5.70;75.20;98696.39;105658;1254;73123;-27
2023/12/29 07:40:26;;;;;;;8.80;4.20;;;;;;;6.22;73.25;98695.73;105526;1261;61163;-27
2023/12/29 07:42:53;;;;;;;7.20;4.20;;;;;;;6.21;72.80;98692.48;105597;1253;61690;-28
2023/12/29 07:45:20;;;;;;;8.20;4.90;;;;;;;6.19;73.00;98694.89;105883;1254;73146;-27
2023/12/29 07:47:46;;;;;;;8.40;5.50;;;;;;;6.02;73.38;98691.86;105792;1256;74061;-27
2023/12/29 07:50:13;;;;;;;7.50;4.60;;;;;;;5.83;74.27;98696.95;105884;1253;72622;-27
2023/12/29 07:52:42;;;;;;;9.40;4.40;;;;;;;5.70;74.83;98695.56;105798;1254;61054;-27
2023/12/29 07:55:09;;;;;;;6.50;3.70;;;;;;;5.84;75.08;98692.22;105623;1255;61214;-27
2023/12/29 07:57:36;;;;;;;7.70;4.80;;;;;;;6.40;72.98;98693.60;105915;1254;72723;-27
2023/12/29 08:00:06;;;;;;;6.50;4.10;;;;;;;6.63;72.21;98697.70;105925;1254;74891;-27
2023/12/29 08:02:38;;;;;;;6.60;4.30;;;;;;;6.45;72.39;98698.59;105671;1252;72651;-27
2023/12/29 08:05:05;;;;;;;7.00;5.20;;;;;;;6.37;72.62;98703.32;105536;1252;61153;-27
2023/12/29 08:07:32;;;;;;;7.80;4.60;;;;;;;6.32;72.85;98710.19;105581;1254;61116;-27
2023/12/29 08:09:59;;;;;;;7.10;4.50;;;;;;;6.19;73.10;98712.64;105518;1254;73087;-27
2023/12/29 08:12:28;;;;;;;6.10;3.40;;;;;;;6.11;73.48;98712.83;105552;1254;74340;-27
2023/12/29 08:14:55;;;;;;;6.60;3.60;;;;;;;6.55;72.82;98716.54;105522;1254;72693;-27
2023/12/29 08:17:22;;;;;;;7.20;4.40;;;;;;;7.10;71.21;98716.48;105497;1254;61153;-27
2023/12/29 08:19:49;;;;;;;6.10;4.40;;;;;;;7.27;70.10;98718.90;105574;1254;61095;-27
2023/12/29 08:22:16;;;;;;;9.40;4.60;;;;;;;7.09;70.54;98721.20;105561;1254;73463;-27
2023/12/29 08:24:43;;;;;;;6.40;4.30;;;;;;;6.96;70.71;98718.16;105552;1254;74307;-27
2023/12/29 08:27:14;;;;;;;6.40;4.30;;;;;;;6.85;70.97;98713.94;105801;1254;72464;-27
2023/12/29 08:29:41;;;;;;;6.80;4.50;;;;;;;6.70;71.68;98711.70;105672;1253;61141;-26
2023/12/29 08:32:07;;;;;;;5.80;4.20;;;;;;;6.50;72.39;98708.82;105784;1256;61209;-26
2023/12/29 08:34:34;;;;;;;4.00;2.20;;;;;;;6.63;72.92;98705.30;105852;1254;73063;-26
2023/12/29 08:37:02;;;;;;;6.20;3.10;;;;;;;7.36;71.02;98707.51;105709;1254;74275;-27
2023/12/29 08:39:29;;;;;;;5.40;4.10;;;;;;;7.68;69.24;98705.02;105893;1254;73185;-26
2023/12/29 08:41:56;;;;;;;7.70;4.60;;;;;;;7.62;69.00;98709.23;105540;1254;61137;-26
2023/12/29 08:44:23;;;;;;;6.10;4.50;;;;;;;7.51;69.53;98707.25;105348;1252;61110;-26
2023/12/29 08:46:50;;;;;;;7.90;4.70;;;;;;;7.43;69.78;98711.80;105659;1254;73175;-26
2023/12/29 08:49:17;;;;;;;7.40;4.70;;;;;;;7.38;70.36;98708.20;105841;1254;74210;-26
2023/12/29 08:51:44;;;;;;;6.60;4.80;;;;;;;7.35;70.42;98710.52;105766;1254;72734;-26
2023/12/29 08:54:11;;;;;;;7.00;4.60;;;;;;;7.32;70.78;98710.21;105711;1254;61068;-26
2023/12/29 08:56:38;;;;;;;8.30;3.60;;;;;;;7.27;71.39;98712.42;105519;1260;61209;-26
2023/12/29 08:59:04;;;;;;;5.90;3.20;;;;;;;7.89;70.44;98705.66;105554;1253;73584;-26
2023/12/29 09:01:31;;;;;;;6.90;4.00;;;;;;;8.26;68.57;98708.56;105646;1254;73733;-26
2023/12/29 09:03:58;;;;;;;8.10;4.40;;;;;;;8.30;68.17;98705.83;105754;1254;72643;-26
2023/12/29 09:06:25;;;;;;;6.30;4.60;;;;;;;8.25;68.09;98703.08;105904;1254;61048;-26
2023/12/29 09:08:52;;;;;;;14.20;5.40;;;;;;;7.93;68.54;98699.30;105855;1256;61119;-27
2023/12/29 09:11:19;;;;;;;6.70;4.90;;;;;;;7.62;70.05;98700.23;105836;1254;73559;-26
2023/12/29 09:13:46;;;;;;;6.20;4.60;;;;;;;7.62;70.38;98695.39;105592;1254;74827;-26
2023/12/29 09:16:13;;;;;;;7.30;4.60;;;;;;;7.66;69.87;98694.98;105597;1254;72695;-26
2023/12/29 09:18:40;;;;;;;5.90;3.50;;;;;;;7.61;70.63;98693.02;105781;1252;61198;-26
2023/12/29 09:21:07;;;;;;;6.90;3.80;;;;;;;8.11;69.88;98688.09;105877;1257;61180;-27
2023/12/29 09:23:37;;;;;;;7.50;4.30;;;;;;;8.41;68.93;98684.40;105869;1254;74661;-26
2023/12/29 09:26:06;;;;;;;6.00;3.80;;;;;;;8.56;68.46;98684.64;105804;1254;74328;-27
2023/12/29 09:28:34;;;;;;;5.10;4.00;;;;;;;8.48;68.55;98679.42;105708;1254;72656;-26
2023/12/29 09:31:01;;;;;;;5.30;3.90;;;;;;;8.33;69.39;98677.44;105885;1252;61201;-26
2023/12/29 09:33:28;;;;;;;6.00;4.00;;;;;;;8.14;70.36;98675.39;105920;1255;61173;-26
2023/12/29 09:35:55;;;;;;;5.20;4.00;;;;;;;8.05;71.33;98670.78;105932;1254;73771;-26
2023/12/29 09:38:22;;;;;;;4.50;3.40;;;;;;;7.97;72.45;98659.64;105864;1254;74335;-26
2023/12/29 09:40:49;;;;;;;7.10;4.10;;;;;;;8.49;71.38;98668.39;105816;1254;72550;-27
2023/12/29 09:43:16;;;;;;;7.80;4.10;;;;;;;8.64;70.21;98657.94;105477;1254;61330;-26
2023/12/29 09:45:43;;;;;;;6.50;3.80;;;;;;;8.72;70.44;98661.96;105547;1256;61141;-26
2023/12/29 09:48:09;;;;;;;10.50;4.70;;;;;;;8.62;70.48;98654.44;105565;1254;73776;-27
2023/12/29 09:50:37;;;;;;;7.30;3.90;;;;;;;8.52;70.28;98650.02;105540;1259;74819;-26
2023/12/29 09:53:04;;;;;;;6.90;4.80;;;;;;;8.35;71.14;98650.98;105616;1254;72947;-26
2023/12/29 09:55:30;;;;;;;5.20;4.20;;;;;;;8.31;71.14;98652.31;105656;1257;61153;-26
2023/12/29 09:57:59;;;;;;;6.60;3.90;;;;;;;8.38;71.37;98653.83;105735;1258;61215;-26
2023/12/29 10:00:26;;;;;;;6.20;3.60;;;;;;;9.01;69.60;98650.83;105616;1257;72488;-27
2023/12/29 10:02:53;;;;;;;7.10;4.30;;;;;;;9.25;67.81;98644.02;105520;1257;74128;-26
2023/12/29 10:05:20;;;;;;;6.50;4.60;;;;;;;9.24;67.94;98645.20;105462;1254;72499;-26
2023/12/29 10:07:47;;;;;;;5.90;4.40;;;;;;;9.12;68.24;98642.79;105539;1253;61118;-27
2023/12/29 10:10:18;;;;;;;5.80;4.00;;;;;;;9.01;68.11;98643.20;105543;1257;61164;-26
2023/12/29 10:12:48;;;;;;;7.00;4.10;;;;;;;8.96;68.63;98639.48;105659;1254;73768;-26
2023/12/29 10:15:20;;;;;;;7.60;4.60;;;;;;;8.87;69.46;98638.75;105589;1259;74894;-26
2023/12/29 10:18:07;;;;;;;5.50;3.10;;;;;;;8.81;69.57;98632.00;105508;1254;72651;-26
2023/12/29 10:21:23;;;;;;;4.30;3.50;;;;;;;9.28;67.61;98626.27;105515;1254;61148;-26
2023/12/29 10:23:55;;;;;;;7.70;3.80;;;;;;;9.60;66.00;98618.44;105068;1266;61367;-26
2023/12/29 10:26:22;;;;;;;7.20;4.20;;;;;;;9.55;66.45;98621.82;105444;1254;72830;-26
2023/12/29 10:28:48;;;;;;;5.30;3.50;;;;;;;9.37;66.36;98613.58;105500;1260;74153;-26
2023/12/29 10:31:18;;;;;;;5.70;3.70;;;;;;;9.19;67.09;98619.90;105542;1254;72607;-26
2023/12/29 10:33:50;;;;;;;6.60;4.30;;;;;;;9.12;67.48;98619.58;105554;1254;61134;-26
2023/12/29 10:36:17;;;;;;;4.30;3.30;;;;;;;9.01;67.69;98613.06;105541;1256;61215;-26
2023/12/29 10:38:48;;;;;;;8.30;4.60;;;;;;;9.02;67.79;98611.44;105497;1253;73360;-26
2023/12/29 10:41:19;;;;;;;8.70;4.20;;;;;;;9.05;67.70;98606.20;105518;1257;74125;-26
2023/12/29 10:43:52;;;;;;;5.60;3.50;;;;;;;9.71;65.69;98597.05;105811;1254;72713;-26
2023/12/29 10:46:20;;;;;;;5.70;3.60;;;;;;;10.26;63.44;98590.78;105671;1254;61049;-27
2023/12/29 10:48:48;;;;;;;5.60;4.00;;;;;;;10.54;62.83;98587.19;105483;1255;61129;-26
2023/12/29 10:51:15;;;;;;;5.50;3.70;;;;;;;10.82;62.21;98581.95;105812;1257;73850;-26
2023/12/29 10:53:43;;;;;;;5.40;3.90;;;;;;;10.92;61.10;98583.84;105516;1255;74252;-26
2023/12/29 10:56:20;;;;;;;4.80;3.50;;;;;;;11.02;60.22;98575.48;105523;1259;71756;-27
2023/12/29 10:59:06;;;;;;;4.50;3.20;;;;;;;10.85;61.06;98576.41;105505;1252;61140;-25
2023/12/29 11:01:34;;;;;;;4.50;3.00;;;;;;;10.59;61.09;98569.09;105584;1259;61195;-25
2023/12/29 11:04:03;;;;;;;4.20;3.50;;;;;;;10.46;61.78;98575.40;105541;1260;73530;-26
2023/12/29 11:06:46;;;;;;;6.10;3.60;;;;;;;10.24;62.28;98561.44;105832;1254;74070;-27
2023/12/29 11:09:31;;;;;;;5.30;3.60;;;;;;;10.15;62.91;98563.98;105665;1259;72964;-27
2023/12/29 11:12:01;;;;;;;5.20;3.50;;;;;;;10.03;63.38;98556.58;105701;1256;61232;-26
2023/12/29 11:14:30;;;;;;;4.40;3.20;;;;;;;9.90;63.01;98551.02;105903;1257;62923;-26
2023/12/29 11:17:00;;;;;;;7.30;3.70;;;;;;;9.75;63.60;98562.75;105920;1254;74257;-26
2023/12/29 11:19:27;;;;;;;4.60;3.30;;;;;;;9.79;63.28;98555.83;105530;1254;74340;-26
2023/12/29 11:21:55;;;;;;;5.90;3.90;;;;;;;9.69;62.98;98548.34;105668;1254;72664;-26
2023/12/29 11:24:22;;;;;;;4.90;3.50;;;;;;;9.72;63.44;98564.27;105609;1254;61133;-26
2023/12/29 11:27:02;;;;;;;3.90;3.50;;;;;;;9.58;63.76;98558.27;105581;1257;61208;-26
2023/12/29 11:29:29;;;;;;;5.20;3.80;;;;;;;9.79;63.63;98557.91;105558;1254;73575;-26
2023/12/29 11:31:56;;;;;;;5.70;3.60;;;;;;;9.88;62.85;98555.42;105611;1258;74272;-26
2023/12/29 11:34:34;;;;;;;10.10;4.30;;;;;;;9.92;62.66;98558.66;105692;1257;72712;-26
2023/12/29 11:37:38;;;;;;;6.30;3.60;;;;;;;10.14;62.02;98561.17;105467;1254;61093;-26
2023/12/29 11:40:05;;;;;;;7.20;4.30;;;;;;;10.14;61.94;98559.94;105905;1257;61109;-27
2023/12/29 11:42:34;;;;;;;5.90;4.00;;;;;;;10.11;61.83;98550.78;105898;1256;73810;-27
2023/12/29 11:45:23;;;;;;;6.60;4.50;;;;;;;10.01;61.93;98557.20;105715;1259;74340;-27
2023/12/29 11:47:53;;;;;;;8.20;4.40;;;;;;;10.16;62.08;98572.95;105849;1255;72814;-26
2023/12/29 11:50:31;;;;;;;5.50;4.00;;;;;;;10.31;61.98;98560.41;105928;1256;61090;-26
2023/12/29 11:52:58;;;;;;;6.70;4.00;;;;;;;10.33;61.71;98556.69;105534;1253;61150;-27
2023/12/29 11:55:30;;;;;;;7.20;3.70;;;;;;;10.23;62.11;98556.53;105559;1254;72580;-26
2023/12/29 11:57:58;;;;;;;6.10;4.10;;;;;;;10.08;62.92;98560.84;105665;1254;73081;-26
2023/12/29 12:00:41;;;;;;;6.20;4.50;;;;;;;10.14;63.13;98554.05;105889;1254;73844;-26
2023/12/29 12:03:28;;;;;;;7.10;4.70;;;;;;;10.47;62.14;98544.38;105717;1254;61042;-26
2023/12/29 12:06:02;;;;;;;6.20;4.20;;;;;;;10.64;61.43;98539.61;105694;1252;61157;-26
2023/12/29 12:08:37;;;;;;;9.30;4.80;;;;;;;10.73;61.00;98532.56;105851;1255;71683;-26
2023/12/29 12:11:29;;;;;;;5.50;4.10;;;;;;;10.72;60.91;98533.65;105621;1260;75851;-26
2023/12/29 12:13:56;;;;;;;6.20;4.60;;;;;;;10.75;60.31;98528.95;105733;1257;72698;-26
2023/12/29 12:16:42;;;;;;;7.30;4.30;;;;;;;10.65;60.34;98527.17;105491;1257;61140;-26
2023/12/29 12:19:09;;;;;;;7.40;4.30;;;;;;;10.39;61.12;98524.48;105509;1258;61243;-26
2023/12/29 12:21:39;;;;;;;7.20;4.40;;;;;;;10.26;61.82;98537.41;105572;1256;73676;-26
2023/12/29 12:24:07;;;;;;;5.90;3.90;;;;;;;10.12;62.25;98543.60;105583;1256;74089;-29
2023/12/29 12:26:34;;;;;;;7.20;4.10;;;;;;;10.13;62.25;98534.70;105352;1254;72531;-26
2023/12/29 12:29:01;;;;;;;4.90;3.50;;;;;;;10.20;62.41;98529.20;105555;1254;61102;-26
2023/12/29 12:31:28;;;;;;;5.80;4.40;;;;;;;10.17;62.77;98526.53;105567;1253;61083;-26
2023/12/29 12:33:56;;;;;;;9.50;4.00;;;;;;;10.22;62.68;98521.24;105555;1254;75277;-26
2023/12/29 12:36:23;;;;;;;5.10;4.20;;;;;;;10.18;62.27;98517.60;105542;1254;73903;-26
2023/12/29 12:38:52;;;;;;;6.10;4.50;;;;;;;10.16;62.66;98519.91;105543;1257;72073;-26
2023/12/29 12:41:22;;;;;;;8.40;3.90;;;;;;;10.22;62.65;98514.63;105450;1252;60982;-26
2023/12/29 12:44:11;;;;;;;6.40;3.90;;;;;;;10.33;62.36;98518.01;105514;1260;61483;-26
2023/12/29 12:46:54;;;;;;;5.00;3.20;;;;;;;10.40;62.48;98514.98;105844;1256;72727;-26
2023/12/29 12:49:21;;;;;;;4.50;3.10;;;;;;;11.22;60.68;98508.81;105441;1259;73837;-26
2023/12/29 12:51:48;;;;;;;4.40;3.10;;;;;;;11.56;59.09;98517.54;105529;1254;71832;-26
2023/12/29 12:54:19;;;;;;;6.70;3.70;;;;;;;11.61;59.08;98517.35;105686;1254;61662;-26
2023/12/29 12:56:46;;;;;;;6.60;4.20;;;;;;;11.28;59.08;98521.88;105605;1260;61167;-26
2023/12/29 12:59:13;;;;;;;5.00;3.90;;;;;;;11.04;60.13;98523.02;105524;1260;73970;-26
2023/12/29 13:01:40;;;;;;;5.90;4.30;;;;;;;10.81;60.47;98519.17;105666;1254;74434;-27
2023/12/29 13:04:08;;;;;;;6.60;4.10;;;;;;;10.53;61.22;98521.27;105591;1254;74235;-27
2023/12/29 13:06:41;;;;;;;7.30;4.10;;;;;;;10.36;61.66;98523.71;105484;1257;63053;-26
2023/12/29 13:09:11;;;;;;;7.50;4.00;;;;;;;10.20;62.30;98523.81;105527;1257;61160;-26
2023/12/29 13:11:40;;;;;;;7.90;4.60;;;;;;;10.13;62.71;98530.89;105630;1259;71723;-26
2023/12/29 13:14:07;;;;;;;8.30;4.70;;;;;;;9.94;63.67;98531.95;105526;1257;72903;-27
2023/12/29 13:16:38;;;;;;;6.10;4.60;;;;;;;9.83;63.82;98532.44;105643;1259;72962;-26
2023/12/29 13:19:17;;;;;;;5.40;4.20;;;;;;;9.78;64.00;98527.48;105695;1253;61179;-26
2023/12/29 13:21:48;;;;;;;6.70;4.20;;;;;;;9.75;64.36;98534.53;105731;1257;61180;-26
2023/12/29 13:24:16;;;;;;;5.40;3.60;;;;;;;9.68;64.51;98531.42;105468;1259;72441;-26
2023/12/29 13:26:44;;;;;;;5.30;3.60;;;;;;;10.28;63.92;98533.39;105565;1260;74354;-27
2023/12/29 13:29:13;;;;;;;6.90;4.10;;;;;;;10.62;62.30;98526.92;105873;1254;72517;-26
2023/12/29 13:31:41;;;;;;;5.10;4.10;;;;;;;10.68;61.72;98524.17;105691;1259;61112;-26